Time;durP1;ratioP1;P1;durP2;ratioP2;P2;SDS_P1;SDS_P2;PMS_P1;PMS_P2;Temp;Humidity;BMP_temperature;BMP_pressure;BME280_temperature;BME280_humidity;BME280_pressure;Samples;Min_cycle;Max_cycle;Signal;HPM_P1;HPM_P2
2022/04/21 00:01:37;;;;;;;;;;;;;;;;;;5054767;28;19946;-24
2022/04/21 00:04:03;;;;;;;;;;;;;;;;;;5054567;28;20278;-24
2022/04/21 00:06:29;;;;;;;;;;;;;;;;;;5054610;28;19924;-24
2022/04/21 00:08:55;;;;;;;;;;;;;;;;;;5054678;28;19916;-24
2022/04/21 00:11:21;;;;;;;;;;;;;;;;;;5054494;28;19912;-24
2022/04/21 00:13:47;;;;;;;;;;;;;;;;;;5054300;28;19917;-24
2022/04/21 00:16:13;;;;;;;;;;;;;;;;;;5054754;28;19992;-24
2022/04/21 00:18:39;;;;;;;;;;;;;;;;;;5054981;28;19943;-24
2022/04/21 00:21:05;;;;;;;;;;;;;;;;;;5054470;28;19977;-24
2022/04/21 00:23:32;;;;;;;;;;;;;;;;;;5054512;28;19944;-24
2022/04/21 00:26:01;;;;;;;;;;;;;;;;;;5054415;28;20375;-24
2022/04/21 00:28:28;;;;;;;;;;;;;;;;;;5036875;28;19913;-24
2022/04/21 00:30:54;;;;;;;;;;;;;;;;;;5054431;28;19916;-24
2022/04/21 00:33:20;;;;;;;;;;;;;;;;;;5054315;28;19913;-24
2022/04/21 00:35:46;;;;;;;;;;;;;;;;;;5054368;28;19995;-24
2022/04/21 00:38:12;;;;;;;;;;;;;;;;;;5054618;28;20256;-24
2022/04/21 00:40:38;;;;;;;;;;;;;;;;;;5036700;28;19912;-24
2022/04/21 00:43:05;;;;;;;;;;;;;;;;;;5054157;28;19919;-24
2022/04/21 00:45:32;;;;;;;;;;;;;;;;;;5036580;28;19952;-24
2022/04/21 00:47:58;;;;;;;;;;;;;;;;;;5054243;28;20382;-24
2022/04/21 00:50:24;;;;;;;;;;;;;;;;;;5036631;28;19956;-24
2022/04/21 00:52:50;;;;;;;;;;;;;;;;;;5054164;28;19909;-24
2022/04/21 00:55:16;;;;;;;;;;;;;;;;;;5054195;28;19913;-24
2022/04/21 00:57:42;;;;;;;;;;;;;;;;;;5054168;28;19931;-24
2022/04/21 01:00:08;;;;;;;;;;;;;;;;;;5054440;28;20007;-24
2022/04/21 01:02:46;;;;;;;;;;;;;;;;;;5054582;28;20326;-24
2022/04/21 01:05:12;;;;;;;;;;;;;;;;;;5040482;28;19924;-24
2022/04/21 01:07:39;;;;;;;;;;;;;;;;;;5040258;28;20407;-24
2022/04/21 01:10:05;;;;;;;;;;;;;;;;;;5058151;28;19917;-24
2022/04/21 01:12:31;;;;;;;;;;;;;;;;;;5057543;28;20343;-24
2022/04/21 01:14:57;;;;;;;;;;;;;;;;;;5058060;28;19924;-24
2022/04/21 01:17:23;;;;;;;;;;;;;;;;;;5057761;28;19935;-24
2022/04/21 01:19:49;;;;;;;;;;;;;;;;;;5057953;28;19913;-24
2022/04/21 01:22:15;;;;;;;;;;;;;;;;;;5057853;28;19923;-24
2022/04/21 01:24:41;;;;;;;;;;;;;;;;;;5057504;28;20263;-24
2022/04/21 01:27:07;;;;;;;;;;;;;;;;;;5057541;28;19948;-24
2022/04/21 01:29:33;;;;;;;;;;;;;;;;;;5057812;28;20335;-24
2022/04/21 01:31:59;;;;;;;;;;;;;;;;;;5057438;28;19932;-24
2022/04/21 01:34:25;;;;;;;;;;;;;;;;;;5057424;28;19980;-24
2022/04/21 01:42:20;;;;;;;;;;;;;;;;;;5057353;28;19951;-24
2022/04/21 01:44:46;;;;;;;;;;;;;;;;;;5057252;28;20000;-24
2022/04/21 01:47:12;;;;;;;;;;;;;;;;;;5057506;28;19940;-24
2022/04/21 01:49:38;;;;;;;;;;;;;;;;;;5057552;28;19909;-24
2022/04/21 01:52:04;;;;;;;;;;;;;;;;;;5057100;28;19924;-24
2022/04/21 01:54:30;;;;;;;;;;;;;;;;;;5039464;28;20250;-24
2022/04/21 01:56:56;;;;;;;;;;;;;;;;;;5057103;28;19912;-24
2022/04/21 01:59:22;;;;;;;;;;;;;;;;;;5057345;28;19915;-24
2022/04/21 02:01:48;;;;;;;;;;;;;;;;;;5057135;28;19943;-24
2022/04/21 02:04:14;;;;;;;;;;;;;;;;;;5057096;28;19970;-24
2022/04/21 02:06:40;;;;;;;;;;;;;;;;;;5056906;28;19913;-24
2022/04/21 02:09:07;;;;;;;;;;;;;;;;;;5056861;28;19909;-24
2022/04/21 02:11:33;;;;;;;;;;;;;;;;;;5056754;28;19913;-24
2022/04/21 02:13:59;;;;;;;;;;;;;;;;;;5056189;28;19916;-24
2022/04/21 02:16:25;;;;;;;;;;;;;;;;;;5056891;28;20173;-24
2022/04/21 02:18:51;;;;;;;;;;;;;;;;;;5056518;28;20317;-24
2022/04/21 02:21:17;;;;;;;;;;;;;;;;;;5056473;28;20024;-24
2022/04/21 02:23:43;;;;;;;;;;;;;;;;;;5056376;28;19913;-24
2022/04/21 02:26:11;;;;;;;;;;;;;;;;;;5038739;28;19923;-24
2022/04/21 02:28:38;;;;;;;;;;;;;;;;;;5056315;28;19940;-24
2022/04/21 02:31:04;;;;;;;;;;;;;;;;;;5056294;28;19967;-24
2022/04/21 02:33:31;;;;;;;;;;;;;;;;;;5056456;28;20339;-24
2022/04/21 02:35:57;;;;;;;;;;;;;;;;;;5056256;28;19909;-24
2022/04/21 02:38:23;;;;;;;;;;;;;;;;;;5056067;28;19913;-24
2022/04/21 02:40:49;;;;;;;;;;;;;;;;;;5038473;28;20058;-24
2022/04/21 02:43:15;;;;;;;;;;;;;;;;;;5055969;28;20221;-24
2022/04/21 02:45:41;;;;;;;;;;;;;;;;;;5055926;28;19939;-24
2022/04/21 02:48:07;;;;;;;;;;;;;;;;;;5038360;28;19952;-24
2022/04/21 02:50:33;;;;;;;;;;;;;;;;;;5055871;28;19913;-24
2022/04/21 02:52:59;;;;;;;;;;;;;;;;;;5055721;28;19920;-24
2022/04/21 02:58:09;;;;;;;;;;;;;;;;;;5055860;28;19919;-24
2022/04/21 03:00:35;;;;;;;;;;;;;;;;;;5055920;28;19920;-24
2022/04/21 03:03:01;;;;;;;;;;;;;;;;;;5055552;28;19966;-24
2022/04/21 03:05:27;;;;;;;;;;;;;;;;;;5055537;28;19917;-24
2022/04/21 03:07:54;;;;;;;;;;;;;;;;;;5055605;28;19913;-24
2022/04/21 03:10:20;;;;;;;;;;;;;;;;;;5055775;28;19959;-24
2022/04/21 03:12:46;;;;;;;;;;;;;;;;;;5055255;28;20005;-24
2022/04/21 03:15:12;;;;;;;;;;;;;;;;;;5055731;28;19919;-24
2022/04/21 03:17:38;;;;;;;;;;;;;;;;;;5055381;28;19916;-24
2022/04/21 03:20:04;;;;;;;;;;;;;;;;;;5037744;28;19971;-24
2022/04/21 03:25:16;;;;;;;;;;;;;;;;;;5054728;28;19935;-24
2022/04/21 03:27:46;;;;;;;;;;;;;;;;;;5055295;28;19917;-24
2022/04/21 03:30:12;;;;;;;;;;;;;;;;;;5055105;28;19924;-24
2022/04/21 03:32:38;;;;;;;;;;;;;;;;;;5054988;28;19943;-24
2022/04/21 03:35:05;;;;;;;;;;;;;;;;;;5054957;28;20371;-24
2022/04/21 03:37:31;;;;;;;;;;;;;;;;;;5054997;28;19909;-24
2022/04/21 03:39:57;;;;;;;;;;;;;;;;;;5054885;28;19924;-24
2022/04/21 03:42:31;;;;;;;;;;;;;;;;;;5054806;28;19909;-24
2022/04/21 03:44:57;;;;;;;;;;;;;;;;;;5054771;28;19917;-24
2022/04/21 03:47:23;;;;;;;;;;;;;;;;;;5054713;28;19916;-24
2022/04/21 03:49:49;;;;;;;;;;;;;;;;;;5037091;28;19913;-24
2022/04/21 03:52:17;;;;;;;;;;;;;;;;;;5036759;28;19923;-24
2022/04/21 03:54:43;;;;;;;;;;;;;;;;;;5054826;28;20232;-24
2022/04/21 03:57:09;;;;;;;;;;;;;;;;;;5054783;28;19920;-24
2022/04/21 03:59:35;;;;;;;;;;;;;;;;;;5054720;28;20264;-24
2022/04/21 04:04:33;;;;;;;;;;;;;;;;;;5052877;28;19925;-24
2022/04/21 04:12:29;;;;;;;;;;;;;;;;;;5054119;28;20005;-24
2022/04/21 04:14:55;;;;;;;;;;;;;;;;;;5054297;28;19917;-24
2022/04/21 04:17:23;;;;;;;;;;;;;;;;;;5054183;28;19916;-24
2022/04/21 04:19:49;;;;;;;;;;;;;;;;;;5054459;28;19956;-24
2022/04/21 04:22:16;;;;;;;;;;;;;;;;;;5054178;28;20400;-24
2022/04/21 04:24:42;;;;;;;;;;;;;;;;;;5053936;28;19927;-24
2022/04/21 04:27:08;;;;;;;;;;;;;;;;;;5054049;28;19908;-24
2022/04/21 04:29:35;;;;;;;;;;;;;;;;;;5036488;28;20297;-24
2022/04/21 04:32:04;;;;;;;;;;;;;;;;;;5054318;28;20293;-24
2022/04/21 04:34:30;;;;;;;;;;;;;;;;;;5036684;28;19913;-24
2022/04/21 04:36:58;;;;;;;;;;;;;;;;;;5055063;28;19990;-24
2022/04/21 04:39:24;;;;;;;;;;;;;;;;;;5058461;28;20008;-24
2022/04/21 04:44:35;;;;;;;;;;;;;;;;;;5057733;28;19967;-24
2022/04/21 04:47:01;;;;;;;;;;;;;;;;;;5057826;28;19913;-24
2022/04/21 04:49:27;;;;;;;;;;;;;;;;;;5058220;28;19909;-24
2022/04/21 04:51:53;;;;;;;;;;;;;;;;;;5057818;28;19913;-24
2022/04/21 04:54:22;;;;;;;;;;;;;;;;;;5039998;28;19924;-24
2022/04/21 04:57:02;;;;;;;;;;;;;;;;;;5057708;28;19912;-25
2022/04/21 04:59:30;;;;;;;;;;;;;;;;;;5057679;28;19987;-25
2022/04/21 05:01:56;;;;;;;;;;;;;;;;;;5057496;28;19913;-25
2022/04/21 05:04:24;;;;;;;;;;;;;;;;;;5057281;28;19921;-24
2022/04/21 05:06:51;;;;;;;;;;;;;;;;;;5056889;28;19956;-25
2022/04/21 05:09:17;;;;;;;;;;;;;;;;;;5056968;28;19916;-25
2022/04/21 05:11:43;;;;;;;;;;;;;;;;;;5057145;28;19920;-24
2022/04/21 05:14:09;;;;;;;;;;;;;;;;;;5057304;28;19996;-25
2022/04/21 05:16:39;;;;;;;;;;;;;;;;;;5057547;28;20007;-25
2022/04/21 05:19:10;;;;;;;;;;;;;;;;;;5057229;28;19913;-25
2022/04/21 05:27:19;;;;;;;;;;;;;;;;;;5057165;28;20017;-24
2022/04/21 05:32:32;;;;;;;;;;;;;;;;;;5057262;28;19923;-24
2022/04/21 05:34:59;;;;;;;;;;;;;;;;;;5056893;28;19923;-24
2022/04/21 05:37:25;;;;;;;;;;;;;;;;;;5057236;28;19971;-24
2022/04/21 05:39:51;;;;;;;;;;;;;;;;;;5039304;28;19932;-25
2022/04/21 05:42:20;;;;;;;;;;;;;;;;;;5057339;28;19948;-24
2022/04/21 05:44:46;;;;;;;;;;;;;;;;;;5039248;28;19920;-24
2022/04/21 05:47:13;;;;;;;;;;;;;;;;;;5039092;28;19944;-24
2022/04/21 05:49:41;;;;;;;;;;;;;;;;;;5056055;28;19931;-25
2022/04/21 05:52:07;;;;;;;;;;;;;;;;;;5056131;28;20204;-24
2022/04/21 05:54:33;;;;;;;;;;;;;;;;;;5056794;28;19912;-24
2022/04/21 05:57:00;;;;;;;;;;;;;;;;;;5038729;28;19912;-24
2022/04/21 05:59:26;;;;;;;;;;;;;;;;;;5056954;28;19948;-24
2022/04/21 06:01:54;;;;;;;;;;;;;;;;;;5056129;28;20214;-24
2022/04/21 06:07:06;;;;;;;;;;;;;;;;;;5056779;28;19927;-24
2022/04/21 06:09:34;;;;;;;;;;;;;;;;;;5055906;28;20060;-24
2022/04/21 06:12:02;;;;;;;;;;;;;;;;;;5055472;28;19913;-24
2022/04/21 06:14:28;;;;;;;;;;;;;;;;;;5037455;28;19962;-24
2022/04/21 06:16:54;;;;;;;;;;;;;;;;;;5037480;28;20058;-24
2022/04/21 06:19:20;;;;;;;;;;;;;;;;;;5055166;28;20229;-24
2022/04/21 06:21:48;;;;;;;;;;;;;;;;;;5054945;28;20294;-24
2022/04/21 06:24:16;;;;;;;;;;;;;;;;;;5054825;28;19992;-24
2022/04/21 06:26:42;;;;;;;;;;;;;;;;;;5037308;28;20320;-24
2022/04/21 06:29:09;;;;;;;;;;;;;;;;;;5037348;28;20224;-24
2022/04/21 06:31:36;;;;;;;;;;;;;;;;;;5054908;28;19920;-24
2022/04/21 06:34:03;;;;;;;;;;;;;;;;;;5054653;28;19909;-24
2022/04/21 06:36:30;;;;;;;;;;;;;;;;;;5054765;28;20233;-24
2022/04/21 06:38:59;;;;;;;;;;;;;;;;;;5037777;28;19974;-24
2022/04/21 06:41:25;;;;;;;;;;;;;;;;;;5055613;28;20352;-24
2022/04/21 06:49:23;;;;;;;;;;;;;;;;;;5055742;28;19976;-24
2022/04/21 06:51:52;;;;;;;;;;;;;;;;;;5055773;28;20003;-24
2022/04/21 06:54:18;;;;;;;;;;;;;;;;;;5055711;28;19989;-24
2022/04/21 06:56:48;;;;;;;;;;;;;;;;;;5055405;28;20232;-24
2022/04/21 06:59:15;;;;;;;;;;;;;;;;;;5054894;28;20258;-24
2022/04/21 07:01:42;;;;;;;;;;;;;;;;;;5054424;28;20236;-24
2022/04/21 07:04:08;;;;;;;;;;;;;;;;;;5055034;28;20301;-30
2022/04/21 07:06:34;;;;;;;;;;;;;;;;;;5054995;28;19924;-24
2022/04/21 07:09:00;;;;;;;;;;;;;;;;;;5037487;28;19916;-24
2022/04/21 07:11:27;;;;;;;;;;;;;;;;;;5037480;28;19912;-24
2022/04/21 07:13:56;;;;;;;;;;;;;;;;;;5055155;28;19913;-25
2022/04/21 07:16:22;;;;;;;;;;;;;;;;;;5055024;28;19923;-25
2022/04/21 07:18:49;;;;;;;;;;;;;;;;;;5055058;28;19995;-24
2022/04/21 07:21:21;;;;;;;;;;;;;;;;;;5146267;27;20293;-29
2022/04/21 07:26:32;;;;;;;;;;;;;;;;;;5112373;28;20453;-30
2022/04/21 07:28:58;;;;;;;;;;;;;;;;;;5112307;28;19920;-29
2022/04/21 07:31:24;;;;;;;;;;;;;;;;;;5111857;28;19927;-33
2022/04/21 07:33:51;;;;;;;;;;;;;;;;;;5111712;28;19908;-29
2022/04/21 07:36:17;;;;;;;;;;;;;;;;;;5112179;28;20273;-31
2022/04/21 07:38:43;;;;;;;;;;;;;;;;;;5111813;28;20388;-25
2022/04/21 07:41:09;;;;;;;;;;;;;;;;;;5111635;28;19949;-27
2022/04/21 07:43:42;;;;;;;;;;;;;;;;;;5111992;28;19923;-26
2022/04/21 07:46:09;;;;;;;;;;;;;;;;;;5112007;28;19950;-26
2022/04/21 07:51:20;;;;;;;;;;;;;;;;;;5111518;28;19962;-27
2022/04/21 07:53:46;;;;;;;;;;;;;;;;;;5111155;28;19912;-29
2022/04/21 07:56:12;;;;;;;;;;;;;;;;;;5111634;28;19916;-27
2022/04/21 07:58:38;;;;;;;;;;;;;;;;;;5111358;28;20306;-25
2022/04/21 08:01:05;;;;;;;;;;;;;;;;;;5111964;28;20353;-24
2022/04/21 08:03:37;;;;;;;;;;;;;;;;;;5111253;28;20000;-28
2022/04/21 08:06:03;;;;;;;;;;;;;;;;;;5111755;28;19966;-28
2022/04/21 08:08:29;;;;;;;;;;;;;;;;;;5111404;28;19912;-30
2022/04/21 08:10:55;;;;;;;;;;;;;;;;;;5111397;28;19916;-27
2022/04/21 08:13:21;;;;;;;;;;;;;;;;;;5111122;28;20361;-24
2022/04/21 08:15:47;;;;;;;;;;;;;;;;;;5111135;28;19939;-28
2022/04/21 08:18:13;;;;;;;;;;;;;;;;;;5111578;28;19908;-29
2022/04/21 08:20:40;;;;;;;;;;;;;;;;;;5110958;28;19927;-25
2022/04/21 08:23:07;;;;;;;;;;;;;;;;;;5111287;28;19965;-27
2022/04/21 08:36:41;;;;;;;;;;;;;;;;;;5097197;28;19923;-28
2022/04/21 08:39:07;;;;;;;;;;;;;;;;;;5096975;28;19911;-26
2022/04/21 08:41:35;;;;;;;;;;;;;;;;;;5096770;28;19912;-31
2022/04/21 08:44:03;;;;;;;;;;;;;;;;;;5096768;28;20003;-25
2022/04/21 08:46:29;;;;;;;;;;;;;;;;;;5097002;28;19912;-25
2022/04/21 08:48:56;;;;;;;;;;;;;;;;;;5096779;28;20246;-28
2022/04/21 08:51:23;;;;;;;;;;;;;;;;;;5097101;28;19912;-32
2022/04/21 08:53:49;;;;;;;;;;;;;;;;;;5095469;28;19924;-27
2022/04/21 08:56:15;;;;;;;;;;;;;;;;;;5096418;28;19962;-29
2022/04/21 08:58:41;;;;;;;;;;;;;;;;;;5095466;28;20351;-29
2022/04/21 09:01:07;;;;;;;;;;;;;;;;;;5096391;28;20322;-27
2022/04/21 09:03:43;;;;;;;;;;;;;;;;;;5095426;28;19999;-34
2022/04/21 09:06:09;;;;;;;;;;;;;;;;;;5095324;28;19919;-28
2022/04/21 09:08:35;;;;;;;;;;;;;;;;;;5096259;28;20234;-29
2022/04/21 09:11:02;;;;;;;;;;;;;;;;;;5096333;28;19951;-27
2022/04/21 09:21:57;;;;;;;;;;;;;;;;;;5073244;28;19943;-28
2022/04/21 09:24:24;;;;;;;;;;;;;;;;;;5099522;28;19919;-30
2022/04/21 09:26:52;;;;;;;;;;;;;;;;;;5098995;28;20373;-30
2022/04/21 09:37:44;;;;;;;;;;;;;;;;;;5099830;28;19919;-30
2022/04/21 09:40:12;;;;;;;;;;;;;;;;;;5097296;28;19916;-29
2022/04/21 09:42:39;;;;;;;;;;;;;;;;;;5097630;28;19912;-32
2022/04/21 09:56:18;;;;;;;;;;;;;;;;;;5095966;28;19923;-28
2022/04/21 09:58:44;;;;;;;;;;;;;;;;;;5095738;28;19992;-32
2022/04/21 10:01:10;;;;;;;;;;;;;;;;;;5094413;28;19940;-29
2022/04/21 10:03:36;;;;;;;;;;;;;;;;;;5095622;28;19908;-32
2022/04/21 10:06:02;;;;;;;;;;;;;;;;;;5095534;28;20231;-29
2022/04/21 10:08:29;;;;;;;;;;;;;;;;;;5095635;28;19915;-27
2022/04/21 10:10:55;;;;;;;;;;;;;;;;;;5095599;28;20020;-25
2022/04/21 10:13:21;;;;;;;;;;;;;;;;;;5095571;28;19908;-27
2022/04/21 10:15:49;;;;;;;;;;;;;;;;;;5095550;28;19920;-29
2022/04/21 10:18:16;;;;;;;;;;;;;;;;;;5094722;28;19960;-27
2022/04/21 10:20:45;;;;;;;;;;;;;;;;;;5095199;28;20026;-31
2022/04/21 10:23:11;;;;;;;;;;;;;;;;;;5095201;28;20040;-27
2022/04/21 10:25:37;;;;;;;;;;;;;;;;;;5095228;28;19912;-28
2022/04/21 10:28:03;;;;;;;;;;;;;;;;;;5093969;28;19912;-26
2022/04/21 10:30:30;;;;;;;;;;;;;;;;;;5095141;28;19913;-28
2022/04/21 10:32:56;;;;;;;;;;;;;;;;;;5093974;28;19912;-28
2022/04/21 10:35:22;;;;;;;;;;;;;;;;;;5095046;28;19922;-32
2022/04/21 10:37:48;;;;;;;;;;;;;;;;;;5094856;28;19980;-29
2022/04/21 10:40:15;;;;;;;;;;;;;;;;;;5095041;28;19978;-30
2022/04/21 10:42:41;;;;;;;;;;;;;;;;;;5094799;28;20251;-26
2022/04/21 10:45:07;;;;;;;;;;;;;;;;;;5094729;28;19982;-26
2022/04/21 10:47:36;;;;;;;;;;;;;;;;;;5093863;28;19932;-33
2022/04/21 10:50:02;;;;;;;;;;;;;;;;;;5094617;28;19972;-30
2022/04/21 10:57:39;;;;;;;;;;;;;;;;;;5094242;28;19934;-30
2022/04/21 11:00:05;;;;;;;;;;;;;;;;;;5094139;28;19920;-28
2022/04/21 11:02:31;;;;;;;;;;;;;;;;;;5093900;28;19913;-30
2022/04/21 11:04:57;;;;;;;;;;;;;;;;;;5093848;28;19912;-30
2022/04/21 11:07:24;;;;;;;;;;;;;;;;;;5093809;28;19989;-27
2022/04/21 11:09:51;;;;;;;;;;;;;;;;;;5093986;28;19935;-28
2022/04/21 11:12:19;;;;;;;;;;;;;;;;;;5093867;28;19908;-30
2022/04/21 11:14:45;;;;;;;;;;;;;;;;;;5093816;28;19912;-30
2022/04/21 11:17:12;;;;;;;;;;;;;;;;;;5094039;28;19912;-29
2022/04/21 11:19:40;;;;;;;;;;;;;;;;;;5093430;28;19939;-32
2022/04/21 11:22:07;;;;;;;;;;;;;;;;;;5094178;28;20295;-31
2022/04/21 11:24:33;;;;;;;;;;;;;;;;;;5094228;28;20250;-29
2022/04/21 11:26:59;;;;;;;;;;;;;;;;;;5094580;28;20003;-28
2022/04/21 11:29:26;;;;;;;;;;;;;;;;;;5094472;28;20037;-28
2022/04/21 11:31:52;;;;;;;;;;;;;;;;;;5093210;28;19912;-29
2022/04/21 11:34:18;;;;;;;;;;;;;;;;;;5094278;28;19961;-33
2022/04/21 11:36:44;;;;;;;;;;;;;;;;;;5094756;28;20006;-28
2022/04/21 11:39:11;;;;;;;;;;;;;;;;;;5094389;28;19965;-28
2022/04/21 11:41:37;;;;;;;;;;;;;;;;;;5094207;28;19946;-26
2022/04/21 11:44:03;;;;;;;;;;;;;;;;;;5094221;28;19912;-28
2022/04/21 11:46:30;;;;;;;;;;;;;;;;;;5093161;28;20053;-30
2022/04/21 11:48:57;;;;;;;;;;;;;;;;;;5094253;28;19908;-32
2022/04/21 11:51:27;;;;;;;;;;;;;;;;;;5094045;28;19969;-32
2022/04/21 11:53:53;;;;;;;;;;;;;;;;;;5093885;28;19912;-28
2022/04/21 11:56:21;;;;;;;;;;;;;;;;;;5093957;28;20006;-32
2022/04/21 11:58:47;;;;;;;;;;;;;;;;;;5094430;28;20314;-32
2022/04/21 12:06:43;;;;;;;;;;;;;;;;;;5095597;28;19965;-26
2022/04/21 12:09:09;;;;;;;;;;;;;;;;;;5096834;28;20362;-28
2022/04/21 12:11:36;;;;;;;;;;;;;;;;;;5096919;28;20358;-28
2022/04/21 12:14:02;;;;;;;;;;;;;;;;;;5097580;28;19923;-29
2022/04/21 12:16:28;;;;;;;;;;;;;;;;;;5096546;28;20007;-27
2022/04/21 12:18:55;;;;;;;;;;;;;;;;;;5097736;28;19935;-25
2022/04/21 12:21:22;;;;;;;;;;;;;;;;;;5097384;28;20335;-28
2022/04/21 12:23:48;;;;;;;;;;;;;;;;;;5097928;28;20432;-26
2022/04/21 12:26:14;;;;;;;;;;;;;;;;;;5097829;28;19973;-30
2022/04/21 12:28:40;;;;;;;;;;;;;;;;;;5096500;28;19909;-28
2022/04/21 12:31:07;;;;;;;;;;;;;;;;;;5097372;28;19912;-33
2022/04/21 12:33:33;;;;;;;;;;;;;;;;;;5096329;28;19937;-32
2022/04/21 12:35:59;;;;;;;;;;;;;;;;;;5097132;28;19912;-32
2022/04/21 12:41:10;;;;;;;;;;;;;;;;;;5096892;28;19970;-30
2022/04/21 12:43:36;;;;;;;;;;;;;;;;;;5096976;28;19939;-30
2022/04/21 12:46:02;;;;;;;;;;;;;;;;;;5097074;28;20266;-26
2022/04/21 12:48:28;;;;;;;;;;;;;;;;;;5096957;28;19908;-27
2022/04/21 12:50:55;;;;;;;;;;;;;;;;;;5095825;28;19916;-27
2022/04/21 12:53:21;;;;;;;;;;;;;;;;;;5096822;28;19908;-29
2022/04/21 12:55:47;;;;;;;;;;;;;;;;;;5095597;28;19912;-28
2022/04/21 12:58:13;;;;;;;;;;;;;;;;;;5096401;28;19912;-27
2022/04/21 13:00:41;;;;;;;;;;;;;;;;;;5096292;28;19931;-28
2022/04/21 13:03:08;;;;;;;;;;;;;;;;;;5096581;28;19912;-28
2022/04/21 13:05:34;;;;;;;;;;;;;;;;;;5096894;28;19938;-26
2022/04/21 13:08:00;;;;;;;;;;;;;;;;;;5097205;28;19908;-28
2022/04/21 13:10:27;;;;;;;;;;;;;;;;;;5096843;28;19987;-28
2022/04/21 13:12:53;;;;;;;;;;;;;;;;;;5096507;28;19908;-32
2022/04/21 13:15:19;;;;;;;;;;;;;;;;;;5096933;28;20004;-34
2022/04/21 13:17:47;;;;;;;;;;;;;;;;;;5096546;28;19951;-27
2022/04/21 13:21:52;;;;;;;;;;;;;;;;;;5096388;28;19934;-28
2022/04/21 13:22:59;;;;;;;;;;;;;;;;;;5096515;28;20357;-29
2022/04/21 13:25:25;;;;;;;;;;;;;;;;;;5096643;28;20006;-31
2022/04/21 13:27:52;;;;;;;;;;;;;;;;;;5096949;28;20247;-29
2022/04/21 13:30:19;;;;;;;;;;;;;;;;;;5096490;28;19912;-34
2022/04/21 13:35:30;;;;;;;;;;;;;;;;;;5096397;28;19923;-28
2022/04/21 13:37:57;;;;;;;;;;;;;;;;;;5096541;28;19912;-28
2022/04/21 13:40:24;;;;;;;;;;;;;;;;;;5096105;28;19916;-31
2022/04/21 13:42:50;;;;;;;;;;;;;;;;;;5096254;28;20287;-31
2022/04/21 13:45:16;;;;;;;;;;;;;;;;;;5095808;28;19984;-33
2022/04/21 13:47:42;;;;;;;;;;;;;;;;;;5095835;28;19908;-28
2022/04/21 13:50:09;;;;;;;;;;;;;;;;;;5096015;28;19912;-31
2022/04/21 13:52:37;;;;;;;;;;;;;;;;;;5095474;28;19913;-30
2022/04/21 13:55:04;;;;;;;;;;;;;;;;;;5095554;28;19969;-29
2022/04/21 13:57:30;;;;;;;;;;;;;;;;;;5095686;28;19931;-27
2022/04/21 13:59:56;;;;;;;;;;;;;;;;;;5095415;28;19996;-28
2022/04/21 14:02:22;;;;;;;;;;;;;;;;;;5095423;28;19912;-29
2022/04/21 14:04:49;;;;;;;;;;;;;;;;;;5094374;28;20350;-32
2022/04/21 14:07:15;;;;;;;;;;;;;;;;;;5095454;28;20361;-28
2022/04/21 14:09:41;;;;;;;;;;;;;;;;;;5095244;28;19954;-29
2022/04/21 14:12:09;;;;;;;;;;;;;;;;;;5095382;28;19916;-29
2022/04/21 14:14:38;;;;;;;;;;;;;;;;;;5095524;28;20287;-31
2022/04/21 14:17:13;;;;;;;;;;;;;;;;;;5095250;28;20053;-29
2022/04/21 14:19:44;;;;;;;;;;;;;;;;;;5094841;28;20238;-29
2022/04/21 14:22:12;;;;;;;;;;;;;;;;;;5095041;28;19992;-26
2022/04/21 14:24:43;;;;;;;;;;;;;;;;;;5095196;28;19991;-33
2022/04/21 14:27:28;;;;;;;;;;;;;;;;;;5095485;28;19923;-27
2022/04/21 14:29:55;;;;;;;;;;;;;;;;;;5094791;28;19990;-25
2022/04/21 14:32:23;;;;;;;;;;;;;;;;;;5095307;28;19999;-25
2022/04/21 14:34:50;;;;;;;;;;;;;;;;;;5095145;28;20297;-27
2022/04/21 14:44:04;;;;;;;;;;;;;;;;;;5095337;28;19920;-29
2022/04/21 14:45:33;;;;;;;;;;;;;;;;;;5095218;28;20330;-34
2022/04/21 14:48:00;;;;;;;;;;;;;;;;;;5094938;28;20266;-27
2022/04/21 14:50:27;;;;;;;;;;;;;;;;;;5093777;28;19918;-31
2022/04/21 14:52:54;;;;;;;;;;;;;;;;;;5094799;28;19961;-31
2022/04/21 14:55:20;;;;;;;;;;;;;;;;;;5094786;28;19912;-29
2022/04/21 14:57:46;;;;;;;;;;;;;;;;;;5094755;28;19912;-31
2022/04/21 15:00:12;;;;;;;;;;;;;;;;;;5094339;28;19935;-31
2022/04/21 15:02:38;;;;;;;;;;;;;;;;;;5094352;28;19912;-28
2022/04/21 15:05:04;;;;;;;;;;;;;;;;;;5094981;28;20317;-31
2022/04/21 15:07:31;;;;;;;;;;;;;;;;;;5094281;28;19912;-26
2022/04/21 15:09:58;;;;;;;;;;;;;;;;;;5093954;28;19908;-30
2022/04/21 15:12:28;;;;;;;;;;;;;;;;;;5093662;28;19912;-27
2022/04/21 15:14:58;;;;;;;;;;;;;;;;;;5093898;28;19920;-29
2022/04/21 15:17:24;;;;;;;;;;;;;;;;;;5093584;28;19923;-30
2022/04/21 15:19:50;;;;;;;;;;;;;;;;;;5093982;28;20203;-26
2022/04/21 15:22:18;;;;;;;;;;;;;;;;;;5092102;28;19930;-29
2022/04/21 15:24:48;;;;;;;;;;;;;;;;;;5092625;28;19916;-27
2022/04/21 15:27:14;;;;;;;;;;;;;;;;;;5093917;28;20026;-36
2022/04/21 15:29:40;;;;;;;;;;;;;;;;;;5093556;28;19908;-23
2022/04/21 15:32:06;;;;;;;;;;;;;;;;;;5093538;28;19922;-30
2022/04/21 15:34:33;;;;;;;;;;;;;;;;;;5094092;28;20360;-25
2022/04/21 15:36:59;;;;;;;;;;;;;;;;;;5093938;28;20049;-27
2022/04/21 15:39:25;;;;;;;;;;;;;;;;;;5095089;28;19962;-25
2022/04/21 15:41:51;;;;;;;;;;;;;;;;;;5096061;28;19962;-27
2022/04/21 15:44:16;;;;;;;;;;;;;;;;;;5098213;28;20231;-26
2022/04/21 15:46:43;;;;;;;;;;;;;;;;;;5098485;28;19908;-26
2022/04/21 15:49:09;;;;;;;;;;;;;;;;;;5098483;28;19973;-26
2022/04/21 15:51:35;;;;;;;;;;;;;;;;;;5098382;28;19912;-26
2022/04/21 15:59:30;;;;;;;;;;;;;;;;;;5098027;28;20031;-29
2022/04/21 16:01:56;;;;;;;;;;;;;;;;;;5097778;28;20295;-30
2022/04/21 16:04:22;;;;;;;;;;;;;;;;;;5098134;28;19999;-27
2022/04/21 16:06:48;;;;;;;;;;;;;;;;;;5098188;28;19916;-25
2022/04/21 16:09:14;;;;;;;;;;;;;;;;;;5098321;28;19972;-26
2022/04/21 16:11:40;;;;;;;;;;;;;;;;;;5098119;28;19908;-30
2022/04/21 16:14:06;;;;;;;;;;;;;;;;;;5097951;28;19923;-28
2022/04/21 16:16:32;;;;;;;;;;;;;;;;;;5097205;28;19908;-29
2022/04/21 16:18:58;;;;;;;;;;;;;;;;;;5098075;28;19962;-27
2022/04/21 16:21:24;;;;;;;;;;;;;;;;;;5097416;28;19924;-25
2022/04/21 16:23:50;;;;;;;;;;;;;;;;;;5097578;28;19912;-31
2022/04/21 16:26:16;;;;;;;;;;;;;;;;;;5097731;28;19924;-23
2022/04/21 16:28:44;;;;;;;;;;;;;;;;;;5097503;28;20020;-29
2022/04/21 16:31:10;;;;;;;;;;;;;;;;;;5097094;28;19923;-27
2022/04/21 16:33:36;;;;;;;;;;;;;;;;;;5097066;28;19912;-29
2022/04/21 16:36:03;;;;;;;;;;;;;;;;;;5097117;28;19922;-29
2022/04/21 16:38:31;;;;;;;;;;;;;;;;;;5097049;28;19916;-27
2022/04/21 16:43:47;;;;;;;;;;;;;;;;;;5097679;28;19965;-26
2022/04/21 16:46:15;;;;;;;;;;;;;;;;;;5097262;28;19912;-27
2022/04/21 16:48:41;;;;;;;;;;;;;;;;;;5096931;28;19923;-33
2022/04/21 16:51:07;;;;;;;;;;;;;;;;;;5097280;28;19916;-25
2022/04/21 16:53:33;;;;;;;;;;;;;;;;;;5096642;28;20007;-30
2022/04/21 16:56:00;;;;;;;;;;;;;;;;;;5097118;28;19944;-33
2022/04/21 16:58:26;;;;;;;;;;;;;;;;;;5097746;28;19966;-27
2022/04/21 17:06:23;;;;;;;;;;;;;;;;;;5096975;28;19919;-28
2022/04/21 17:08:49;;;;;;;;;;;;;;;;;;5096867;28;19912;-26
2022/04/21 17:11:15;;;;;;;;;;;;;;;;;;5096928;28;19956;-30
2022/04/21 17:13:41;;;;;;;;;;;;;;;;;;5096744;28;19972;-26
2022/04/21 17:16:07;;;;;;;;;;;;;;;;;;5095674;28;19966;-30
2022/04/21 17:18:33;;;;;;;;;;;;;;;;;;5096632;28;19912;-26
2022/04/21 17:20:59;;;;;;;;;;;;;;;;;;5096464;28;20065;-26
2022/04/21 17:23:25;;;;;;;;;;;;;;;;;;5095282;28;19927;-29
2022/04/21 17:25:51;;;;;;;;;;;;;;;;;;5096775;28;19915;-28
2022/04/21 17:28:17;;;;;;;;;;;;;;;;;;5096471;28;19923;-30
2022/04/21 17:30:43;;;;;;;;;;;;;;;;;;5096622;28;20319;-30
2022/04/21 17:33:16;;;;;;;;;;;;;;;;;;5096679;28;19919;-31
2022/04/21 17:35:44;;;;;;;;;;;;;;;;;;5095985;28;19919;-30
2022/04/21 17:41:01;;;;;;;;;;;;;;;;;;5095448;28;19969;-28
2022/04/21 17:43:27;;;;;;;;;;;;;;;;;;5095211;28;20015;-28
2022/04/21 17:45:53;;;;;;;;;;;;;;;;;;5095173;28;19944;-29
2022/04/21 17:48:20;;;;;;;;;;;;;;;;;;5093984;28;19912;-31
2022/04/21 17:50:46;;;;;;;;;;;;;;;;;;5095122;28;19919;-29
2022/04/21 17:53:12;;;;;;;;;;;;;;;;;;5093993;28;20006;-34
2022/04/21 17:55:38;;;;;;;;;;;;;;;;;;5095213;28;19920;-30
2022/04/21 17:58:04;;;;;;;;;;;;;;;;;;5095071;28;19971;-30
2022/04/21 18:00:30;;;;;;;;;;;;;;;;;;5094993;28;19924;-26
2022/04/21 18:02:56;;;;;;;;;;;;;;;;;;5094883;28;20330;-30
2022/04/21 18:05:22;;;;;;;;;;;;;;;;;;5094068;28;19912;-31
2022/04/21 18:07:48;;;;;;;;;;;;;;;;;;5094802;28;19981;-30
2022/04/21 18:10:14;;;;;;;;;;;;;;;;;;5094867;28;19994;-29
2022/04/21 18:12:40;;;;;;;;;;;;;;;;;;5094688;28;20097;-31
2022/04/21 18:15:06;;;;;;;;;;;;;;;;;;5095043;28;19990;-32
2022/04/21 18:17:32;;;;;;;;;;;;;;;;;;5094697;28;19912;-32
2022/04/21 18:19:58;;;;;;;;;;;;;;;;;;5094623;28;19919;-26
2022/04/21 18:22:24;;;;;;;;;;;;;;;;;;5094808;28;20003;-27
2022/04/21 18:24:50;;;;;;;;;;;;;;;;;;5095579;28;20341;-26
2022/04/21 18:27:16;;;;;;;;;;;;;;;;;;5095470;28;19951;-30
2022/04/21 18:32:28;;;;;;;;;;;;;;;;;;5095652;28;19950;-28
2022/04/21 18:34:55;;;;;;;;;;;;;;;;;;5095534;28;19916;-29
2022/04/21 18:37:21;;;;;;;;;;;;;;;;;;5094308;28;19908;-27
2022/04/21 18:39:47;;;;;;;;;;;;;;;;;;5095430;28;20323;-28
2022/04/21 18:42:13;;;;;;;;;;;;;;;;;;5094992;28;19928;-29
2022/04/21 18:44:39;;;;;;;;;;;;;;;;;;5095143;28;20053;-27
2022/04/21 18:47:05;;;;;;;;;;;;;;;;;;5093930;28;19912;-28